createdAt,value
2023-03-26T00:02:01.510Z,1.2
2023-03-26T00:07:01.456Z,1.2
2023-03-26T00:12:01.494Z,1.1
2023-03-26T00:17:01.407Z,1.1
2023-03-26T00:22:47.063Z,1.1
2023-03-26T00:27:15.060Z,1.1
2023-03-26T00:32:13.090Z,1.1
2023-03-26T00:37:15.088Z,1.1
2023-03-26T00:42:13.082Z,1.1
2023-03-26T00:47:08.116Z,1.1
2023-03-26T00:52:15.090Z,1.4
2023-03-26T01:04:12.380Z,1.4
2023-03-26T01:07:54.163Z,1.3
2023-03-26T01:12:02.464Z,1.2
2023-03-26T01:17:01.476Z,1.2
2023-03-26T01:22:13.595Z,1.3
2023-03-26T01:27:01.429Z,1.3
2023-03-26T01:32:03.486Z,1.3
2023-03-26T01:37:01.518Z,1.3
2023-03-26T01:42:01.496Z,1.4
2023-03-26T01:47:01.449Z,1.4
2023-03-26T01:52:01.513Z,1.4
2023-03-26T01:57:01.430Z,1.4
2023-03-26T02:02:01.512Z,1.4
2023-03-26T02:12:01.473Z,1.4
2023-03-26T02:17:01.516Z,1.4
2023-03-26T02:22:19.714Z,1.4
2023-03-26T02:27:01.589Z,1.4
2023-03-26T02:32:01.528Z,1.4
2023-03-26T02:37:01.425Z,1.3
2023-03-26T02:42:01.494Z,1.3
2023-03-26T02:47:01.493Z,1.3
2023-03-26T02:52:01.502Z,1.5
2023-03-26T02:57:01.466Z,1.3
2023-03-26T03:02:01.590Z,1.5
2023-03-26T03:07:01.919Z,1.5
2023-03-26T03:12:01.444Z,1.6
2023-03-26T03:17:01.566Z,1.6
2023-03-26T03:22:28.108Z,1.8
2023-03-26T03:27:01.490Z,1.8
2023-03-26T03:32:01.457Z,1.9
2023-03-26T03:37:01.472Z,2
2023-03-26T03:42:01.459Z,2
2023-03-26T03:47:01.548Z,2
2023-03-26T03:52:01.946Z,2
2023-03-26T03:57:01.468Z,2
2023-03-26T04:02:01.464Z,1.9
2023-03-26T04:07:01.543Z,2
2023-03-26T04:12:01.535Z,1.9
2023-03-26T04:17:01.499Z,1.6
2023-03-26T04:22:23.561Z,1.6
2023-03-26T04:27:01.520Z,1.6
2023-03-26T04:32:01.523Z,1.7
2023-03-26T04:37:01.590Z,1.6
2023-03-26T04:42:01.486Z,1.6
2023-03-26T04:47:01.959Z,1.6
2023-03-26T04:52:01.525Z,1.7
2023-03-26T04:57:01.542Z,1.8
2023-03-26T05:02:01.573Z,1.7
2023-03-26T05:07:01.448Z,1.7
2023-03-26T05:12:01.499Z,1.9
2023-03-26T05:17:01.568Z,1.7
2023-03-26T05:22:17.471Z,1.8
2023-03-26T05:27:01.505Z,1.7
2023-03-26T05:32:01.534Z,1.6
2023-03-26T05:37:01.526Z,1.6
2023-03-26T05:42:02.516Z,1.6
2023-03-26T05:47:01.425Z,1.6
2023-03-26T05:52:01.669Z,1.6
2023-03-26T05:57:01.569Z,1.5
2023-03-26T06:02:01.583Z,1.4
2023-03-26T06:07:01.497Z,1.4
2023-03-26T06:12:01.570Z,1.4
2023-03-26T06:17:01.537Z,1.5
2023-03-26T06:22:20.204Z,1.5
2023-03-26T06:27:01.774Z,1.5
2023-03-26T06:32:18.843Z,1.5
2023-03-26T06:37:01.540Z,1.5
2023-03-26T06:42:01.536Z,1.5
2023-03-26T06:47:01.497Z,1.5
2023-03-26T06:52:01.554Z,1.5
2023-03-26T06:57:01.549Z,1.7
2023-03-26T07:02:01.588Z,1.5
2023-03-26T07:07:01.551Z,1.7
2023-03-26T07:12:01.558Z,1.8
2023-03-26T07:17:01.565Z,2.3
2023-03-26T07:22:14.679Z,2.3
2023-03-26T07:27:01.549Z,2.3
2023-03-26T07:32:01.628Z,2.1
2023-03-26T07:37:01.572Z,2.1
2023-03-26T07:42:01.637Z,2.1
2023-03-26T07:47:01.570Z,2.1
2023-03-26T07:52:01.577Z,2.1
2023-03-26T07:57:02.086Z,2.3
2023-03-26T08:02:01.535Z,2.3
2023-03-26T08:07:01.489Z,2.4
2023-03-26T08:12:01.530Z,2.5
2023-03-26T08:17:01.514Z,2.8
2023-03-26T08:22:06.187Z,2.8
2023-03-26T08:27:01.678Z,2.8
2023-03-26T08:32:01.589Z,2.7
2023-03-26T08:37:01.504Z,2.8
2023-03-26T08:42:01.527Z,2.9
2023-03-26T08:47:01.803Z,2.9
2023-03-26T08:52:01.624Z,2.9
2023-03-26T08:57:01.639Z,3.1
2023-03-26T09:02:01.682Z,3.5
2023-03-26T09:07:01.603Z,4.4
2023-03-26T09:12:01.748Z,10.2
2023-03-26T09:17:01.556Z,10.2
2023-03-26T09:22:25.335Z,10.2
2023-03-26T09:27:01.550Z,5.8
2023-03-26T09:32:01.601Z,5.5
2023-03-26T09:37:01.476Z,5.1
2023-03-26T09:42:01.793Z,5.5
2023-03-26T09:47:01.601Z,5.5
2023-03-26T09:52:01.659Z,5.6
2023-03-26T09:57:01.600Z,5.6
2023-03-26T10:02:01.600Z,5.6
2023-03-26T10:07:01.535Z,5.6
2023-03-26T10:12:05.637Z,5.6
2023-03-26T10:17:01.745Z,5.6
2023-03-26T10:22:18.949Z,5.6
2023-03-26T10:27:08.230Z,5.3
2023-03-26T10:32:01.679Z,5.6
2023-03-26T10:37:01.596Z,5.3
2023-03-26T10:42:01.559Z,5.6
2023-03-26T10:47:01.532Z,4.8
2023-03-26T10:52:01.695Z,4.7
2023-03-26T10:57:01.682Z,4.7
2023-03-26T11:02:01.603Z,4.4
2023-03-26T11:07:02.393Z,4.3
2023-03-26T11:12:01.593Z,4.3
2023-03-26T11:17:01.614Z,4.3
2023-03-26T11:22:21.172Z,4.3
2023-03-26T11:27:15.626Z,4.1
2023-03-26T11:32:01.696Z,4
2023-03-26T11:37:01.681Z,4.4
2023-03-26T11:42:01.766Z,4.4
2023-03-26T11:47:02.306Z,5.2
2023-03-26T11:52:01.775Z,4
2023-03-26T11:57:07.754Z,3.8
2023-03-26T12:02:01.633Z,3.5
2023-03-26T12:07:01.821Z,3.3
2023-03-26T12:12:01.622Z,3.3
2023-03-26T12:17:01.789Z,2.6
2023-03-26T12:22:11.042Z,2.6
2023-03-26T12:27:01.649Z,3.1
2023-03-26T12:32:01.659Z,3.1
2023-03-26T12:37:01.589Z,2.7
2023-03-26T12:43:40.681Z,2.7
2023-03-26T12:47:54.677Z,2.2
2023-03-26T12:52:01.708Z,2.2
2023-03-26T12:57:11.601Z,2
2023-03-26T13:02:01.706Z,1.9
2023-03-26T13:07:04.643Z,1.8
2023-03-26T13:12:01.636Z,1.6
2023-03-26T13:17:01.761Z,1.5
2023-03-26T13:22:27.140Z,1.3
2023-03-26T13:27:01.668Z,1.1
2023-03-26T13:32:01.625Z,1.1
2023-03-26T13:37:01.818Z,1.1
2023-03-26T13:42:01.652Z,1.1
2023-03-26T13:47:01.648Z,1.1
2023-03-26T13:52:01.675Z,1.2
2023-03-26T13:57:01.555Z,1.2
2023-03-26T14:02:01.609Z,1.2
2023-03-26T14:07:01.663Z,1.2
2023-03-26T14:12:01.629Z,1.2
2023-03-26T14:17:01.631Z,1.3
2023-03-26T14:22:14.645Z,1.2
2023-03-26T14:27:01.602Z,1.2
2023-03-26T14:32:01.601Z,1.2
2023-03-26T14:37:01.662Z,1.3
2023-03-26T14:42:01.671Z,1.3
2023-03-26T14:47:01.698Z,1.3
2023-03-26T14:52:01.882Z,1.3
2023-03-26T14:57:01.887Z,1.3
2023-03-26T15:02:01.790Z,1.3
2023-03-26T15:07:01.654Z,1.3
2023-03-26T15:12:12.867Z,1.3
2023-03-26T15:17:01.687Z,1.4
2023-03-26T15:22:32.352Z,1.5
2023-03-26T15:27:01.859Z,1.5
2023-03-26T15:32:01.676Z,1.8
2023-03-26T15:37:01.703Z,1.8
2023-03-26T15:42:02.425Z,2.1
2023-03-26T15:47:01.699Z,2.2
2023-03-26T15:52:01.836Z,2.2
2023-03-26T15:57:01.950Z,2.2
2023-03-26T16:02:01.710Z,2.2
2023-03-26T16:07:01.760Z,1.5
2023-03-26T16:12:01.696Z,1.2
2023-03-26T16:17:01.688Z,1.1
2023-03-26T16:22:21.251Z,1.1
2023-03-26T16:27:01.712Z,1
2023-03-26T16:32:01.678Z,1
2023-03-26T16:37:01.756Z,1
2023-03-26T16:42:07.696Z,0.9
2023-03-26T16:47:01.853Z,0.9
2023-03-26T16:52:01.682Z,0.9
2023-03-26T16:57:01.731Z,0.9
2023-03-26T17:02:02.735Z,1.1
2023-03-26T17:07:01.832Z,1.2
2023-03-26T17:12:02.668Z,1.1
2023-03-26T17:17:01.703Z,1.1
2023-03-26T17:22:22.950Z,1.1
2023-03-26T17:27:02.764Z,1.1
2023-03-26T17:32:01.648Z,1.1
2023-03-26T17:37:01.775Z,1.1
2023-03-26T17:42:01.688Z,1.1
2023-03-26T17:47:01.693Z,1.2
2023-03-26T17:52:01.689Z,1.4
2023-03-26T17:57:01.748Z,1.4
2023-03-26T18:02:02.253Z,1.4
2023-03-26T18:07:01.708Z,1.4
2023-03-26T18:12:02.176Z,1.3
2023-03-26T18:17:01.696Z,1.1
2023-03-26T18:22:02.520Z,1
2023-03-26T18:27:01.737Z,0.9
2023-03-26T18:32:01.767Z,0.9
2023-03-26T18:37:01.783Z,0.8
2023-03-26T18:42:01.849Z,0.8
2023-03-26T18:47:01.729Z,0.8
2023-03-26T18:52:01.779Z,0.8
2023-03-26T18:57:01.859Z,0.8
2023-03-26T19:02:01.777Z,0.8
2023-03-26T19:07:01.683Z,0.8
2023-03-26T19:12:01.676Z,0.9
2023-03-26T19:17:01.755Z,0.9
2023-03-26T19:22:26.989Z,0.9
2023-03-26T19:27:02.829Z,0.9
2023-03-26T19:32:01.719Z,0.9
2023-03-26T19:37:01.783Z,0.8
2023-03-26T19:42:01.732Z,0.9
2023-03-26T19:47:01.763Z,0.8
2023-03-26T19:52:01.787Z,0.8
2023-03-26T19:57:01.726Z,0.9
2023-03-26T20:02:02.047Z,0.9
2023-03-26T20:07:01.727Z,0.9
2023-03-26T20:12:01.777Z,1
2023-03-26T20:17:01.883Z,2.7
2023-03-26T20:22:10.386Z,2.7
2023-03-26T20:27:01.711Z,2.7
2023-03-26T20:32:01.714Z,2.7
2023-03-26T20:37:02.824Z,1.2
2023-03-26T20:42:01.840Z,1
2023-03-26T20:47:01.777Z,1
2023-03-26T20:52:01.744Z,1
2023-03-26T20:57:01.780Z,0.9
2023-03-26T21:02:01.778Z,0.9
2023-03-26T21:07:17.442Z,0.9
2023-03-26T21:12:01.863Z,1
2023-03-26T21:17:01.745Z,1
2023-03-26T21:22:33.306Z,1
2023-03-26T21:27:01.735Z,1.1
2023-03-26T21:32:02.117Z,1.2
2023-03-26T21:37:01.807Z,1.2
2023-03-26T21:42:07.723Z,1.3
2023-03-26T21:47:01.790Z,1.3
2023-03-26T21:52:01.710Z,1.4
2023-03-26T21:57:01.773Z,1.3
2023-03-26T22:02:01.718Z,1.3
2023-03-26T22:07:01.785Z,1.3
2023-03-26T22:12:01.953Z,1.3
2023-03-26T22:17:01.806Z,1.3
2023-03-26T22:22:34.644Z,1.3
2023-03-26T22:27:01.736Z,1.3
2023-03-26T22:32:01.706Z,1.3
2023-03-26T22:37:01.742Z,1.3
2023-03-26T22:42:01.860Z,1.2
2023-03-26T22:47:01.726Z,1.2
2023-03-26T22:52:01.728Z,1.2
2023-03-26T22:57:01.769Z,1.2
2023-03-26T23:02:01.770Z,1.2
2023-03-26T23:07:01.779Z,1.2
2023-03-26T23:12:01.837Z,1.2
2023-03-26T23:17:01.830Z,1.3
2023-03-26T23:22:12.615Z,1.4
2023-03-26T23:27:01.743Z,1.5
2023-03-26T23:32:01.834Z,1.6
2023-03-26T23:37:01.761Z,1.6
2023-03-26T23:42:01.841Z,1.6
2023-03-26T23:47:01.751Z,1.6
2023-03-26T23:52:01.742Z,1.5
2023-03-26T23:57:01.872Z,1.4
